Time;durP1;ratioP1;P1;durP2;ratioP2;P2;SDS_P1;SDS_P2;PMS_P1;PMS_P2;Temp;Humidity;BMP_temperature;BMP_pressure;BME280_temperature;BME280_humidity;BME280_pressure;Samples;Min_cycle;Max_cycle;Signal;HPM_P1;HPM_P2
2022/01/01 00:02:23;;;;;;;42.73;19.40;;;;;;;9.44;27.05;101613.63;4973831;28;20427;-44
2022/01/01 00:05:08;;;;;;;37.80;17.53;;;;;;;9.49;25.95;101612.31;4972822;28;20984;-43
2022/01/01 00:07:38;;;;;;;37.97;17.30;;;;;;;9.51;27.30;101616.47;4974194;28;20435;-51
2022/01/01 00:10:07;;;;;;;42.33;17.07;;;;;;;9.53;29.10;101606.47;4973893;28;20442;-48
2022/01/01 00:12:35;;;;;;;28.77;15.27;;;;;;;9.56;29.38;101613.31;4973489;28;20502;-51
2022/01/01 00:15:03;;;;;;;36.17;13.70;;;;;;;9.56;31.03;101615.97;4973021;28;20553;-49
2022/01/01 00:17:30;;;;;;;27.73;13.57;;;;;;;9.57;31.74;101622.94;4973594;28;20461;-48
2022/01/01 00:19:58;;;;;;;35.67;14.10;;;;;;;9.60;31.32;101626.09;4973401;28;20474;-50
2022/01/01 00:22:27;;;;;;;34.97;13.30;;;;;;;9.60;33.23;101631.44;4973502;28;20522;-46
2022/01/01 00:24:55;;;;;;;26.30;11.60;;;;;;;9.64;31.43;101635.44;4972985;28;20486;-50
2022/01/01 00:27:23;;;;;;;27.03;12.00;;;;;;;9.65;28.89;101634.41;4973386;28;20469;-53
2022/01/01 00:29:50;;;;;;;22.93;11.67;;;;;;;9.68;30.63;101639.41;4973474;28;20435;-50
2022/01/01 00:32:18;;;;;;;23.37;12.23;;;;;;;9.63;35.76;101640.91;4973251;28;20489;-52
2022/01/01 00:34:46;;;;;;;25.77;11.50;;;;;;;9.63;36.05;101639.09;4972820;28;21041;-50
2022/01/01 00:37:14;;;;;;;22.70;11.10;;;;;;;9.59;38.67;101634.28;4973234;28;20450;-50
2022/01/01 00:39:43;;;;;;;27.83;11.80;;;;;;;9.56;37.42;101632.75;4973327;28;20435;-50
2022/01/01 00:42:11;;;;;;;33.23;14.23;;;;;;;9.58;35.71;101638.78;4973526;28;20433;-49
2022/01/01 00:44:38;;;;;;;23.90;11.40;;;;;;;9.58;37.12;101636.09;4962021;28;20547;-48
2022/01/01 00:47:06;;;;;;;30.00;11.50;;;;;;;9.49;41.72;101649.59;4973179;28;20454;-52
2022/01/01 00:49:34;;;;;;;32.63;11.00;;;;;;;9.44;44.08;101656.22;4973405;28;20816;-47
2022/01/01 00:52:02;;;;;;;28.70;10.43;;;;;;;9.48;37.75;101650.56;4973003;28;20479;-50
2022/01/01 00:54:30;;;;;;;26.90;11.10;;;;;;;9.48;38.50;101656.75;4972526;28;20559;-45
2022/01/01 00:56:59;;;;;;;32.47;9.87;;;;;;;9.44;45.00;101642.91;4973083;28;20469;-49
2022/01/01 00:59:28;;;;;;;18.03;10.03;;;;;;;9.45;46.51;101649.09;4972987;28;20522;-44
2022/01/01 01:01:56;;;;;;;20.93;9.30;;;;;;;9.43;44.72;101641.28;4972974;28;20466;-45
2022/01/01 01:04:23;;;;;;;24.07;10.00;;;;;;;9.40;43.33;101646.94;4972345;28;20467;-46
2022/01/01 01:06:51;;;;;;;18.40;10.97;;;;;;;9.40;43.59;101652.25;4973113;28;20506;-45
2022/01/01 01:09:20;;;;;;;23.03;12.53;;;;;;;9.33;44.80;101648.59;4972867;28;20439;-44
2022/01/01 01:11:51;;;;;;;29.07;10.33;;;;;;;9.30;42.90;101656.91;4972689;28;20478;-44
2022/01/01 01:14:23;;;;;;;17.40;8.80;;;;;;;9.32;39.64;101659.38;4972328;28;20871;-46
2022/01/01 01:16:53;;;;;;;17.73;9.33;;;;;;;9.32;38.27;101651.41;4973822;28;20478;-47
2022/01/01 01:19:21;;;;;;;22.50;10.10;;;;;;;9.34;35.73;101662.75;4976798;28;20533;-47
2022/01/01 01:21:50;;;;;;;22.23;10.23;;;;;;;9.26;42.84;101666.22;4976896;28;20472;-47
2022/01/01 01:24:19;;;;;;;19.40;10.40;;;;;;;9.20;46.17;101669.53;4975886;28;20465;-45
2022/01/01 01:26:50;;;;;;;24.10;9.63;;;;;;;9.21;43.89;101665.03;4976814;28;20459;-48
2022/01/01 01:29:19;;;;;;;24.13;10.87;;;;;;;9.24;41.62;101662.06;4976973;28;20814;-44
2022/01/01 01:31:48;;;;;;;19.43;8.47;;;;;;;9.27;35.31;101661.72;4976565;28;20529;-46
2022/01/01 01:34:16;;;;;;;36.27;10.33;;;;;;;9.29;32.11;101665.88;4975990;28;20473;-45
2022/01/01 01:36:44;;;;;;;31.97;10.60;;;;;;;9.34;31.96;101662.75;4976385;28;20486;-47
2022/01/01 01:39:11;;;;;;;26.93;10.03;;;;;;;9.35;33.00;101657.22;4976295;28;20530;-45
2022/01/01 01:41:42;;;;;;;34.20;10.60;;;;;;;9.35;34.42;101651.91;4976568;28;20463;-46
2022/01/01 01:44:23;;;;;;;39.73;10.80;;;;;;;9.38;35.58;101670.22;4969084;28;20474;-47
2022/01/01 01:46:53;;;;;;;30.23;10.40;;;;;;;9.35;38.06;101670.53;4973997;28;20964;-46
2022/01/01 01:49:21;;;;;;;28.00;11.97;;;;;;;9.35;38.72;101683.84;4976334;28;20435;-47
2022/01/01 01:51:49;;;;;;;30.17;10.43;;;;;;;9.36;38.97;101684.69;4976319;28;20569;-48
2022/01/01 01:54:18;;;;;;;26.73;10.43;;;;;;;9.36;39.90;101692.69;4975698;28;20989;-44
2022/01/01 01:56:46;;;;;;;32.00;10.60;;;;;;;9.38;40.44;101685.34;4976213;28;20458;-45
2022/01/01 01:59:15;;;;;;;29.47;10.20;;;;;;;9.38;41.68;101675.53;4976194;28;20454;-47
2022/01/01 02:01:43;;;;;;;40.90;11.47;;;;;;;9.35;44.46;101688.34;4976013;28;20803;-45
2022/01/01 02:04:12;;;;;;;39.63;12.70;;;;;;;9.34;45.51;101681.38;4975475;28;20467;-45
2022/01/01 02:06:40;;;;;;;29.20;10.37;;;;;;;9.30;47.73;101691.50;4976279;28;20455;-47
2022/01/01 02:09:10;;;;;;;18.50;10.27;;;;;;;9.31;47.98;101689.69;4976061;28;20921;-48
2022/01/01 02:11:38;;;;;;;23.93;10.00;;;;;;;9.29;48.89;101687.19;4976008;28;20423;-45
2022/01/01 02:14:21;;;;;;;41.73;11.80;;;;;;;9.27;49.89;101694.50;4975343;28;20987;-46
2022/01/01 02:17:07;;;;;;;29.00;11.20;;;;;;;9.25;49.92;101691.19;4975952;28;20481;-45
2022/01/01 02:19:50;;;;;;;32.23;10.43;;;;;;;9.24;49.47;101686.00;4975977;28;20445;-48
2022/01/01 02:22:20;;;;;;;26.50;10.67;;;;;;;9.23;50.95;101690.50;4975622;28;20933;-44
2022/01/01 02:24:48;;;;;;;26.00;10.33;;;;;;;9.22;50.44;101696.00;4975100;28;20467;-47
2022/01/01 02:27:17;;;;;;;31.73;10.17;;;;;;;9.22;49.13;101683.53;4975562;28;20450;-46
2022/01/01 02:29:45;;;;;;;32.80;11.60;;;;;;;9.23;48.65;101684.34;4975515;28;21032;-46
2022/01/01 02:32:15;;;;;;;30.83;10.03;;;;;;;9.24;48.14;101683.34;4975443;28;20478;-45
2022/01/01 02:34:43;;;;;;;39.13;12.20;;;;;;;9.24;48.39;101697.50;4975084;28;20475;-46
2022/01/01 02:37:11;;;;;;;36.60;11.83;;;;;;;9.25;48.63;101701.84;4975264;28;20457;-46
2022/01/01 02:39:40;;;;;;;33.77;10.73;;;;;;;9.25;48.37;101706.31;4975500;28;20437;-48
2022/01/01 02:42:10;;;;;;;38.40;12.67;;;;;;;9.26;47.88;101702.63;4975514;28;20517;-44
2022/01/01 02:44:39;;;;;;;36.73;11.90;;;;;;;9.27;48.27;101715.78;4964158;28;20490;-45
2022/01/01 02:47:07;;;;;;;35.27;11.27;;;;;;;9.31;47.52;101717.16;4975122;28;20443;-50
2022/01/01 02:49:34;;;;;;;39.07;12.17;;;;;;;9.33;47.81;101725.78;4975193;28;20438;-49
2022/01/01 02:52:02;;;;;;;33.97;11.37;;;;;;;9.33;48.67;101728.44;4975125;28;20450;-46
2022/01/01 02:54:30;;;;;;;36.67;12.00;;;;;;;9.35;49.45;101728.28;4974370;28;20550;-50
2022/01/01 02:56:59;;;;;;;23.77;11.13;;;;;;;9.36;48.61;101728.13;4975138;28;20920;-45
2022/01/01 02:59:26;;;;;;;32.80;11.70;;;;;;;9.35;48.66;101728.28;4974909;28;20530;-44
2022/01/01 03:01:54;;;;;;;34.50;11.90;;;;;;;9.34;50.48;101740.78;4975000;28;20435;-48
2022/01/01 03:04:22;;;;;;;32.37;12.13;;;;;;;9.27;53.26;101737.09;4974053;28;20466;-45
2022/01/01 03:06:55;;;;;;;34.90;14.03;;;;;;;9.25;54.73;101741.75;4974968;28;20545;-44
2022/01/01 03:09:24;;;;;;;35.57;13.40;;;;;;;9.21;57.01;101744.88;4974775;28;20435;-45
2022/01/01 03:11:53;;;;;;;39.07;14.10;;;;;;;9.16;59.23;101742.72;4974862;28;20437;-46
2022/01/01 03:14:22;;;;;;;42.60;13.83;;;;;;;9.13;59.68;101750.19;4973970;28;20964;-45
2022/01/01 03:16:51;;;;;;;48.63;14.10;;;;;;;9.08;60.22;101757.84;4974275;28;20499;-46
2022/01/01 03:19:18;;;;;;;28.57;11.97;;;;;;;9.03;60.65;101750.34;4974861;28;20898;-46
2022/01/01 03:21:46;;;;;;;35.87;12.73;;;;;;;9.01;59.96;101744.34;4974844;28;20534;-47
2022/01/01 03:24:14;;;;;;;49.20;14.67;;;;;;;8.97;60.82;101748.31;4973945;28;20554;-46
2022/01/01 03:26:41;;;;;;;39.17;12.23;;;;;;;8.98;60.49;101749.16;4974382;28;20647;-46
2022/01/01 03:29:09;;;;;;;36.70;13.00;;;;;;;9.00;60.02;101752.47;4974425;28;20537;-45
2022/01/01 03:31:38;;;;;;;33.33;13.00;;;;;;;8.96;60.64;101767.13;4974266;28;20443;-48
2022/01/01 03:34:05;;;;;;;37.73;13.07;;;;;;;8.93;60.43;101762.13;4973565;28;20477;-46
2022/01/01 03:36:33;;;;;;;42.27;14.00;;;;;;;8.90;60.85;101772.06;4974479;28;20481;-46
2022/01/01 03:39:01;;;;;;;42.43;15.00;;;;;;;8.86;60.77;101760.09;4973895;28;20534;-45
2022/01/01 03:41:29;;;;;;;45.87;13.43;;;;;;;8.88;60.20;101758.09;4974353;28;20443;-45
2022/01/01 03:43:56;;;;;;;37.73;12.63;;;;;;;8.86;59.85;101761.94;4968549;28;20526;-48
2022/01/01 03:46:24;;;;;;;29.20;12.83;;;;;;;8.80;60.00;101750.09;4968454;28;20451;-46
2022/01/01 03:48:53;;;;;;;36.23;12.90;;;;;;;8.80;59.21;101762.56;4974259;28;20449;-48
2022/01/01 03:51:21;;;;;;;39.07;13.57;;;;;;;8.80;59.03;101762.56;4974162;28;20530;-50
2022/01/01 03:53:48;;;;;;;42.83;13.57;;;;;;;8.77;58.84;101766.38;4973369;28;20561;-47
2022/01/01 03:56:16;;;;;;;35.40;13.40;;;;;;;8.76;59.17;101761.22;4973939;28;20498;-46
2022/01/01 03:58:43;;;;;;;60.50;15.03;;;;;;;8.73;58.42;101769.50;4973797;28;20533;-46
2022/01/01 04:01:11;;;;;;;45.30;13.17;;;;;;;8.71;58.42;101767.03;4974004;28;20539;-46
2022/01/01 04:03:39;;;;;;;36.43;14.23;;;;;;;8.71;56.78;101785.63;4973240;28;20474;-45
2022/01/01 04:06:08;;;;;;;39.10;13.17;;;;;;;8.72;56.03;101787.28;4973795;28;20455;-44
2022/01/01 04:08:36;;;;;;;30.13;13.13;;;;;;;8.71;56.10;101788.28;4973719;28;20534;-46
2022/01/01 04:11:03;;;;;;;35.90;12.93;;;;;;;8.75;55.35;101786.97;4973615;28;20895;-45
2022/01/01 04:13:31;;;;;;;43.97;13.33;;;;;;;8.76;55.35;101778.00;4973181;28;20542;-47
2022/01/01 04:15:59;;;;;;;49.17;13.47;;;;;;;8.76;56.05;101782.47;4973500;28;20836;-46
2022/01/01 04:18:37;;;;;;;33.47;12.50;;;;;;;8.76;55.74;101790.47;4973761;28;20478;-45
2022/01/01 04:21:08;;;;;;;39.30;13.47;;;;;;;8.78;55.47;101794.63;4973631;28;20459;-47
2022/01/01 04:23:36;;;;;;;43.77;15.10;;;;;;;8.81;55.55;101799.63;4972781;28;20487;-46
2022/01/01 04:26:05;;;;;;;32.80;12.57;;;;;;;8.80;56.54;101797.97;4973501;28;20491;-46
2022/01/01 04:28:33;;;;;;;33.50;13.53;;;;;;;8.80;56.58;101807.78;4973492;28;20446;-44
2022/01/01 04:31:01;;;;;;;36.33;12.93;;;;;;;8.79;56.43;101806.09;4973366;28;20534;-48
2022/01/01 04:33:28;;;;;;;28.30;10.90;;;;;;;8.78;55.91;101812.44;4972642;28;20467;-46
2022/01/01 04:35:56;;;;;;;43.13;13.87;;;;;;;8.78;54.78;101818.56;4973193;28;20454;-48
2022/01/01 04:38:36;;;;;;;31.60;12.60;;;;;;;8.79;54.63;101816.75;4973430;28;20841;-47
2022/01/01 04:41:04;;;;;;;40.93;12.60;;;;;;;8.80;53.54;101826.41;4973377;28;20439;-47
2022/01/01 04:43:32;;;;;;;43.40;13.80;;;;;;;8.80;53.51;101821.06;4969586;28;20549;-47
2022/01/01 04:46:00;;;;;;;36.00;12.87;;;;;;;8.82;51.58;101822.59;4965023;28;20542;-45
2022/01/01 04:48:28;;;;;;;52.63;13.90;;;;;;;8.85;50.94;101824.09;4973054;28;20431;-45
2022/01/01 04:50:55;;;;;;;28.03;11.87;;;;;;;8.86;50.96;101823.94;4973035;28;21004;-46
2022/01/01 04:53:24;;;;;;;41.77;13.67;;;;;;;8.88;50.70;101831.75;4972552;28;20478;-47
2022/01/01 04:55:52;;;;;;;43.33;13.37;;;;;;;8.89;50.68;101830.75;4973120;28;20562;-46
2022/01/01 04:58:19;;;;;;;39.80;13.83;;;;;;;8.92;50.96;101837.59;4973034;28;20878;-46
2022/01/01 05:00:47;;;;;;;32.67;13.03;;;;;;;8.92;51.36;101840.25;4973102;28;20435;-48
2022/01/01 05:03:15;;;;;;;35.83;12.87;;;;;;;8.90;52.36;101835.91;4972157;28;20562;-47
2022/01/01 05:05:43;;;;;;;42.57;13.33;;;;;;;8.91;52.31;101834.09;4972793;28;20455;-47
2022/01/01 05:08:11;;;;;;;23.80;12.03;;;;;;;8.92;51.92;101840.25;4973083;28;21035;-45
2022/01/01 05:10:39;;;;;;;33.63;11.10;;;;;;;8.92;52.45;101843.75;4973007;28;20817;-45
2022/01/01 05:13:07;;;;;;;40.83;12.80;;;;;;;8.95;51.65;101850.56;4972132;28;20427;-46
2022/01/01 05:15:35;;;;;;;31.17;10.97;;;;;;;8.95;51.04;101842.59;4972593;28;20492;-45
2022/01/01 05:18:02;;;;;;;38.23;13.53;;;;;;;8.96;49.18;101841.63;4973069;28;20528;-46
2022/01/01 05:20:30;;;;;;;32.37;11.97;;;;;;;8.96;48.07;101847.75;4973071;28;20530;-45
2022/01/01 05:22:58;;;;;;;55.00;12.57;;;;;;;9.01;47.76;101855.25;4972826;28;20438;-45
2022/01/01 05:25:25;;;;;;;34.37;11.37;;;;;;;9.01;47.88;101858.75;4972256;28;20473;-48
2022/01/01 05:27:54;;;;;;;27.03;11.87;;;;;;;9.03;48.82;101856.75;4972676;28;20554;-49
2022/01/01 05:30:22;;;;;;;30.20;13.10;;;;;;;9.02;49.40;101852.44;4972694;28;20434;-46
2022/01/01 05:32:50;;;;;;;40.07;12.77;;;;;;;9.06;48.61;101858.25;4972653;28;20431;-46
2022/01/01 05:35:18;;;;;;;30.43;11.50;;;;;;;9.06;49.69;101851.13;4972215;28;20479;-48
2022/01/01 05:37:45;;;;;;;27.07;11.50;;;;;;;9.09;51.00;101857.94;4972804;28;20856;-47
2022/01/01 05:40:16;;;;;;;35.20;13.47;;;;;;;9.09;51.93;101866.78;4972712;28;21019;-45
2022/01/01 05:42:44;;;;;;;32.27;13.43;;;;;;;9.09;52.31;101864.09;4972429;28;20855;-46
2022/01/01 05:45:13;;;;;;;44.17;11.57;;;;;;;9.07;52.16;101863.44;4972247;28;20465;-50
2022/01/01 05:47:41;;;;;;;39.13;12.60;;;;;;;9.10;50.70;101864.94;4972701;28;20439;-48
2022/01/01 05:50:09;;;;;;;32.87;12.23;;;;;;;9.11;50.99;101872.75;4972813;28;20530;-46
2022/01/01 05:52:37;;;;;;;34.13;12.27;;;;;;;9.13;50.82;101877.94;4972342;28;20530;-46
2022/01/01 05:55:06;;;;;;;35.40;12.87;;;;;;;9.14;51.79;101877.75;4971922;28;20479;-48
2022/01/01 05:57:33;;;;;;;30.77;11.93;;;;;;;9.11;50.75;101883.41;4972405;28;20431;-44
2022/01/01 06:00:01;;;;;;;32.03;12.70;;;;;;;9.12;50.59;101887.75;4972668;28;20438;-46
2022/01/01 06:02:30;;;;;;;34.93;12.90;;;;;;;9.12;49.79;101892.22;4972951;28;20441;-46
2022/01/01 06:04:58;;;;;;;27.60;11.57;;;;;;;9.13;49.21;101891.25;4975575;28;20471;-46
2022/01/01 06:07:26;;;;;;;35.00;13.47;;;;;;;9.13;50.54;101880.59;4965377;28;20475;-45
2022/01/01 06:09:53;;;;;;;38.80;13.40;;;;;;;9.13;50.64;101884.09;4943537;29;20539;-44
2022/01/01 06:12:21;;;;;;;34.60;11.80;;;;;;;9.12;50.13;101890.41;4936165;29;20523;-48
2022/01/01 06:14:48;;;;;;;19.73;11.27;;;;;;;9.12;50.13;101887.75;4934971;28;20487;-46
2022/01/01 06:17:16;;;;;;;36.17;12.23;;;;;;;9.15;50.64;101873.28;4935792;29;20475;-46
2022/01/01 06:19:45;;;;;;;29.60;13.60;;;;;;;9.15;50.52;101881.25;4935483;29;20444;-45
2022/01/01 06:22:14;;;;;;;43.20;14.60;;;;;;;9.17;50.66;101881.97;4935457;29;20445;-46
2022/01/01 06:24:41;;;;;;;40.00;14.00;;;;;;;9.16;51.16;101881.13;4934739;28;20467;-45
2022/01/01 06:27:09;;;;;;;29.03;13.40;;;;;;;9.16;51.40;101877.63;4935814;29;20544;-45
2022/01/01 06:29:36;;;;;;;23.27;14.00;;;;;;;9.16;51.81;101883.78;4935468;29;20527;-45
2022/01/01 06:32:04;;;;;;;39.03;14.10;;;;;;;9.14;51.28;101880.41;4935490;29;20535;-47
2022/01/01 06:34:32;;;;;;;35.37;15.80;;;;;;;9.15;50.61;101894.56;4934514;28;20487;-45
2022/01/01 06:37:01;;;;;;;48.93;14.50;;;;;;;9.14;51.17;101892.91;4935149;29;20453;-48
2022/01/01 06:39:29;;;;;;;38.00;14.43;;;;;;;9.12;51.53;101894.88;4935177;29;20440;-45
2022/01/01 06:41:56;;;;;;;39.57;13.20;;;;;;;9.13;51.29;101899.22;4935101;29;20549;-46
2022/01/01 06:44:24;;;;;;;34.20;13.17;;;;;;;9.13;49.97;101893.91;4957821;28;20550;-45
2022/01/01 06:46:53;;;;;;;33.27;12.87;;;;;;;9.13;51.26;101908.03;4970985;28;20924;-49
2022/01/01 06:49:21;;;;;;;31.77;13.77;;;;;;;9.13;52.21;101907.22;4973476;28;20562;-46
2022/01/01 06:51:48;;;;;;;25.80;11.90;;;;;;;9.15;51.94;101902.56;4973518;28;20533;-47
2022/01/01 06:54:17;;;;;;;42.30;13.87;;;;;;;9.13;53.63;101902.72;4972376;28;21008;-45
2022/01/01 06:56:45;;;;;;;32.80;14.17;;;;;;;9.12;54.17;101914.34;4973432;28;20542;-50
2022/01/01 06:59:12;;;;;;;36.80;13.83;;;;;;;9.12;55.55;101908.19;4973138;28;20652;-46
2022/01/01 07:01:40;;;;;;;39.93;13.90;;;;;;;9.11;55.46;101910.00;4973082;28;21009;-44
2022/01/01 07:04:08;;;;;;;27.60;12.83;;;;;;;9.11;56.35;101906.53;4972115;28;20562;-45
2022/01/01 07:06:37;;;;;;;39.80;15.60;;;;;;;9.10;57.06;101907.53;4973250;28;20984;-45
2022/01/01 07:09:06;;;;;;;44.37;14.90;;;;;;;9.08;57.08;101912.19;4973323;28;21067;-46
2022/01/01 07:11:35;;;;;;;42.50;15.33;;;;;;;9.11;56.50;101918.00;4972876;28;20443;-50
2022/01/01 07:14:02;;;;;;;42.00;15.17;;;;;;;9.06;57.87;101924.78;4970789;28;20473;-51
2022/01/01 07:16:30;;;;;;;41.70;15.60;;;;;;;9.02;58.74;101926.13;4972616;28;20489;-45
2022/01/01 07:18:58;;;;;;;44.63;16.50;;;;;;;8.98;58.55;101925.59;4973021;28;20439;-45
2022/01/01 07:21:25;;;;;;;39.33;16.87;;;;;;;8.98;58.09;101935.38;4972742;28;20450;-50
2022/01/01 07:23:53;;;;;;;48.03;18.43;;;;;;;8.97;58.71;101942.53;4972060;28;20926;-47
2022/01/01 07:26:20;;;;;;;41.93;16.40;;;;;;;8.92;59.14;101944.84;4973075;28;20450;-45
2022/01/01 07:28:49;;;;;;;43.03;17.57;;;;;;;8.92;59.12;101939.53;4972735;28;20912;-44
2022/01/01 07:31:18;;;;;;;42.70;18.53;;;;;;;8.87;59.48;101952.44;4972078;28;20534;-44
2022/01/01 07:33:46;;;;;;;41.97;16.20;;;;;;;8.93;57.96;101966.97;4971979;28;20831;-45
2022/01/01 07:36:13;;;;;;;47.37;18.43;;;;;;;8.88;59.07;101968.25;4972761;28;20470;-45
2022/01/01 07:38:41;;;;;;;41.63;17.10;;;;;;;8.85;57.93;101986.34;4973165;28;20466;-49
2022/01/01 07:41:09;;;;;;;32.13;16.33;;;;;;;8.86;57.06;101967.59;4971825;28;20960;-45
2022/01/01 07:43:38;;;;;;;35.53;17.63;;;;;;;8.85;57.72;101967.72;4968113;28;20469;-45
2022/01/01 07:46:07;;;;;;;47.47;17.07;;;;;;;8.88;57.85;101972.72;4964478;28;20538;-45
2022/01/01 07:48:35;;;;;;;46.20;17.77;;;;;;;8.88;59.70;101996.69;4973072;28;20497;-47
2022/01/01 07:51:02;;;;;;;51.47;19.20;;;;;;;8.85;60.68;102000.47;4971720;28;20445;-44
2022/01/01 07:53:30;;;;;;;40.33;18.37;;;;;;;8.86;60.16;101999.50;4971386;28;20470;-45
2022/01/01 07:55:57;;;;;;;56.90;17.57;;;;;;;8.85;61.37;102012.94;4972153;28;20481;-45
2022/01/01 07:58:25;;;;;;;44.03;17.90;;;;;;;8.84;61.28;102021.94;4972215;28;20443;-44
2022/01/01 08:00:53;;;;;;;58.97;19.77;;;;;;;8.86;60.36;102019.94;4971392;28;20941;-51
2022/01/01 08:03:22;;;;;;;48.43;18.47;;;;;;;8.83;61.61;102028.22;4971588;28;20446;-45
2022/01/01 08:05:50;;;;;;;46.80;17.97;;;;;;;8.80;61.98;102034.69;4972298;28;20451;-46
2022/01/01 08:08:17;;;;;;;53.27;21.57;;;;;;;8.73;62.59;102025.66;4972473;28;20437;-45
2022/01/01 08:10:45;;;;;;;51.20;22.13;;;;;;;8.74;60.43;102026.50;4971519;28;20441;-48
2022/01/01 08:13:21;;;;;;;48.70;22.63;;;;;;;8.74;60.62;102024.69;4970822;28;20436;-44
2022/01/01 08:15:49;;;;;;;43.90;22.93;;;;;;;8.72;60.99;102013.34;4971939;28;20482;-45
2022/01/01 08:18:16;;;;;;;48.40;21.70;;;;;;;8.74;60.85;102032.66;4972288;28;20435;-46
2022/01/01 08:20:45;;;;;;;37.80;22.97;;;;;;;8.71;62.06;102032.13;4971370;28;20431;-47
2022/01/01 08:23:13;;;;;;;33.43;20.40;;;;;;;8.71;61.85;102034.78;4970872;28;20427;-47
2022/01/01 08:25:41;;;;;;;35.20;21.53;;;;;;;8.71;61.22;102029.47;4971319;28;20451;-45
2022/01/01 08:28:10;;;;;;;35.60;21.60;;;;;;;8.72;61.66;102025.81;4972130;28;20971;-49
2022/01/01 08:30:37;;;;;;;26.07;19.30;;;;;;;8.72;62.03;102036.47;4971186;28;20431;-50
2022/01/01 08:33:05;;;;;;;40.93;22.87;;;;;;;8.73;62.13;102030.97;4970860;28;20820;-49
2022/01/01 08:35:35;;;;;;;40.50;23.77;;;;;;;8.71;63.27;102030.31;4971105;28;20485;-46
2022/01/01 08:38:04;;;;;;;37.70;21.00;;;;;;;8.73;62.87;102035.44;4972096;28;20423;-45
2022/01/01 08:40:32;;;;;;;41.47;20.97;;;;;;;8.69;65.04;102037.56;4970198;28;20438;-46
2022/01/01 08:43:00;;;;;;;40.33;23.43;;;;;;;8.65;66.22;102048.69;4968598;28;20443;-46
2022/01/01 08:45:32;;;;;;;41.03;21.60;;;;;;;8.62;66.40;102038.34;4982568;28;20486;-45
2022/01/01 08:48:00;;;;;;;40.63;22.83;;;;;;;8.56;66.76;102042.47;4991027;28;20436;-47
2022/01/01 08:50:27;;;;;;;39.33;21.60;;;;;;;8.53;64.87;102049.91;4990041;28;20438;-47
2022/01/01 08:52:55;;;;;;;29.93;19.80;;;;;;;8.50;63.93;102043.06;4990913;28;20453;-46
2022/01/01 08:55:24;;;;;;;42.80;22.33;;;;;;;8.47;62.32;102055.81;4990271;28;20570;-48
2022/01/01 08:57:52;;;;;;;50.13;22.63;;;;;;;8.45;60.42;102053.31;4991092;28;20445;-45
2022/01/01 09:00:21;;;;;;;33.77;19.67;;;;;;;8.46;60.01;102062.09;4990117;28;20449;-48
2022/01/01 09:02:49;;;;;;;31.93;19.10;;;;;;;8.48;59.34;102053.03;4990565;28;20440;-46
2022/01/01 09:05:17;;;;;;;31.90;19.73;;;;;;;8.51;58.24;102063.31;4990315;28;20461;-46
2022/01/01 09:07:45;;;;;;;35.70;20.17;;;;;;;8.55;58.06;102069.19;4990754;28;20951;-46
2022/01/01 09:10:12;;;;;;;33.23;19.53;;;;;;;8.54;58.89;102070.19;4990193;28;20529;-46
2022/01/01 09:12:41;;;;;;;39.57;20.90;;;;;;;8.52;58.02;102069.47;4990662;28;20521;-44
2022/01/01 09:15:09;;;;;;;44.00;19.60;;;;;;;8.59;56.48;102078.53;4989877;28;20468;-47
2022/01/01 09:17:37;;;;;;;30.90;19.53;;;;;;;8.59;58.04;102083.84;4990881;28;20564;-48
2022/01/01 09:20:05;;;;;;;39.60;19.97;;;;;;;8.60;58.13;102082.88;4990531;28;20469;-46
2022/01/01 09:22:33;;;;;;;33.03;20.07;;;;;;;8.58;57.43;102075.03;4990591;28;20518;-44
2022/01/01 09:25:01;;;;;;;30.27;19.80;;;;;;;8.64;57.26;102081.56;4990109;28;20898;-46
2022/01/01 09:27:29;;;;;;;40.30;21.20;;;;;;;8.65;57.05;102088.56;4990712;28;20425;-44
2022/01/01 09:29:58;;;;;;;43.00;20.40;;;;;;;8.67;56.83;102102.53;4989388;28;20450;-46
2022/01/01 09:32:26;;;;;;;36.13;19.63;;;;;;;8.70;56.68;102091.59;4990234;28;21017;-43
2022/01/01 09:34:55;;;;;;;34.53;19.77;;;;;;;8.74;56.56;102103.63;4989994;28;20462;-48
2022/01/01 09:37:24;;;;;;;39.37;21.37;;;;;;;8.77;56.83;102108.63;4990754;28;20877;-44
2022/01/01 09:39:55;;;;;;;43.63;22.83;;;;;;;8.78;57.29;102107.66;4993727;28;20953;-44
2022/01/01 09:42:23;;;;;;;38.90;21.77;;;;;;;8.79;58.07;102107.50;4993365;28;20915;-46
2022/01/01 09:44:52;;;;;;;43.90;22.40;;;;;;;8.82;58.27;102111.66;4986853;28;20472;-47
2022/01/01 09:47:22;;;;;;;50.80;23.43;;;;;;;8.88;56.79;102121.69;4992435;28;20452;-45
2022/01/01 09:49:50;;;;;;;52.03;21.83;;;;;;;8.89;58.30;102116.25;4973758;28;20444;-49
2022/01/01 09:52:18;;;;;;;51.63;22.10;;;;;;;8.96;57.30;102116.44;4979787;28;20803;-46
2022/01/01 09:54:45;;;;;;;48.40;22.17;;;;;;;8.99;58.80;102113.47;4992624;28;20541;-45
2022/01/01 09:57:13;;;;;;;52.13;25.27;;;;;;;9.01;60.41;102121.31;4993287;28;21059;-49
2022/01/01 09:59:41;;;;;;;62.90;24.70;;;;;;;9.04;60.10;102124.53;4992638;28;20464;-45
2022/01/01 10:02:09;;;;;;;49.73;24.40;;;;;;;9.07;61.29;102134.03;4975912;28;20439;-46
2022/01/01 10:04:48;;;;;;;57.13;27.83;;;;;;;9.05;62.79;102139.47;4973238;28;20464;-49
2022/01/01 10:07:16;;;;;;;54.27;25.60;;;;;;;8.98;65.54;102141.09;4973703;28;20458;-45
2022/01/01 10:09:44;;;;;;;68.23;29.77;;;;;;;8.96;65.87;102148.38;4973799;28;20470;-49
2022/01/01 10:12:16;;;;;;;51.80;27.07;;;;;;;8.92;66.67;102139.03;4973631;28;20807;-44
2022/01/01 10:14:45;;;;;;;46.50;26.33;;;;;;;8.91;65.75;102137.38;4973135;28;20463;-47
2022/01/01 10:17:17;;;;;;;60.77;26.93;;;;;;;8.89;64.54;102124.22;4974696;28;20837;-46
2022/01/01 10:19:50;;;;;;;48.30;26.17;;;;;;;8.90;63.85;102107.25;4992710;28;20434;-46
2022/01/01 10:22:18;;;;;;;52.23;25.17;;;;;;;8.88;63.64;102108.41;4993267;28;20443;-43
2022/01/01 10:27:43;;;;;;;61.43;29.77;;;;;;;8.88;64.72;102121.69;4992977;28;20987;-44
2022/01/01 10:30:18;;;;;;;49.73;27.37;;;;;;;8.88;64.81;102124.38;4992532;28;20529;-44
2022/01/01 10:33:10;;;;;;;43.47;24.60;;;;;;;8.85;64.53;102128.16;4992840;28;20520;-45
2022/01/01 10:35:41;;;;;;;42.67;25.63;;;;;;;8.87;63.40;102133.31;4992783;28;20446;-45
2022/01/01 10:38:15;;;;;;;63.93;28.77;;;;;;;8.88;63.77;102127.88;4968951;28;20568;-48
2022/01/01 10:40:44;;;;;;;47.30;24.43;;;;;;;8.88;63.43;102132.34;4991669;28;20456;-45
2022/01/01 10:43:12;;;;;;;39.63;23.17;;;;;;;8.90;62.75;102131.19;4986779;28;20441;-50
2022/01/01 10:45:42;;;;;;;37.27;23.77;;;;;;;8.93;62.88;102139.88;4984476;28;20454;-45
2022/01/01 10:48:22;;;;;;;47.33;24.90;;;;;;;8.92;63.36;102148.84;4993515;28;20840;-48
2022/01/01 10:50:54;;;;;;;42.10;23.27;;;;;;;8.89;64.66;102144.66;4991987;28;20532;-46
2022/01/01 10:53:23;;;;;;;40.63;23.20;;;;;;;8.88;64.44;102133.19;4992643;28;21194;-45
2022/01/01 10:55:53;;;;;;;45.27;25.53;;;;;;;8.90;63.01;102119.72;4993150;28;20452;-47
2022/01/01 10:58:22;;;;;;;44.07;23.50;;;;;;;8.89;63.12;102131.38;4992712;28;21005;-48
2022/01/01 11:00:51;;;;;;;42.90;23.77;;;;;;;8.86;62.45;102124.53;4992220;28;20434;-45
2022/01/01 11:03:20;;;;;;;46.70;25.37;;;;;;;8.85;59.38;102120.19;4992479;28;20441;-50
2022/01/01 11:05:51;;;;;;;48.90;25.57;;;;;;;8.90;57.17;102111.75;4992669;28;20454;-46
2022/01/01 11:08:20;;;;;;;52.30;26.03;;;;;;;8.91;56.60;102110.75;4993028;28;20440;-45
2022/01/01 11:10:48;;;;;;;68.37;29.23;;;;;;;8.92;53.82;102108.94;4991883;28;20963;-46
2022/01/01 11:13:15;;;;;;;62.93;29.37;;;;;;;8.96;50.50;102115.63;4990751;28;20425;-46
2022/01/01 11:15:43;;;;;;;68.73;31.47;;;;;;;9.01;47.59;102108.03;4992389;28;20504;-45
2022/01/01 11:18:13;;;;;;;73.90;33.93;;;;;;;9.04;46.00;102107.72;4992681;28;20919;-44
2022/01/01 11:20:41;;;;;;;69.57;32.93;;;;;;;9.09;44.72;102100.94;4991196;28;20928;-45
2022/01/01 11:23:11;;;;;;;73.53;30.83;;;;;;;9.10;41.63;102104.44;4992282;28;20436;-47
2022/01/01 11:25:41;;;;;;;78.30;33.00;;;;;;;9.17;38.91;102101.00;4992435;28;20466;-46
2022/01/01 11:28:12;;;;;;;80.83;31.60;;;;;;;9.21;38.92;102105.03;4992336;28;20858;-44